sensor_id;sensor_type;location;lat;lon;timestamp;pressure;altitude;pressure_sealevel;temperature
49593;BMP280;35499;51.482;4.264;2024-02-26T00:02:17;99658.47;;;7.75
49593;BMP280;35499;51.482;4.264;2024-02-26T00:04:42;99654.22;;;7.74
49593;BMP280;35499;51.482;4.264;2024-02-26T00:07:07;99664.44;;;7.74
49593;BMP280;35499;51.482;4.264;2024-02-26T00:09:33;99644.88;;;7.73
49593;BMP280;35499;51.482;4.264;2024-02-26T00:12:04;99651.69;;;7.73
49593;BMP280;35499;51.482;4.264;2024-02-26T00:14:30;99660.22;;;7.73
49593;BMP280;35499;51.482;4.264;2024-02-26T00:16:56;99648.31;;;7.72
49593;BMP280;35499;51.482;4.264;2024-02-26T00:19:21;99651.78;;;7.70
49593;BMP280;35499;51.482;4.264;2024-02-26T00:21:47;99655.19;;;7.69
49593;BMP280;35499;51.482;4.264;2024-02-26T00:24:12;99653.50;;;7.68
49593;BMP280;35499;51.482;4.264;2024-02-26T00:26:37;99645.84;;;7.68
49593;BMP280;35499;51.482;4.264;2024-02-26T00:29:03;99651.81;;;7.68
49593;BMP280;35499;51.482;4.264;2024-02-26T00:31:28;99653.50;;;7.69
49593;BMP280;35499;51.482;4.264;2024-02-26T00:33:53;99645.81;;;7.69
49593;BMP280;35499;51.482;4.264;2024-02-26T00:36:19;99656.88;;;7.70
49593;BMP280;35499;51.482;4.264;2024-02-26T00:38:44;99666.25;;;7.69
49593;BMP280;35499;51.482;4.264;2024-02-26T00:41:15;99662.88;;;7.69
49593;BMP280;35499;51.482;4.264;2024-02-26T00:43:41;99669.69;;;7.68
49593;BMP280;35499;51.482;4.264;2024-02-26T00:46:07;99661.22;;;7.67
49593;BMP280;35499;51.482;4.264;2024-02-26T00:48:32;99662.97;;;7.65
49593;BMP280;35499;51.482;4.264;2024-02-26T00:50:58;99667.25;;;7.63
49593;BMP280;35499;51.482;4.264;2024-02-26T00:53:23;99659.66;;;7.60
49593;BMP280;35499;51.482;4.264;2024-02-26T00:55:50;99661.41;;;7.58
49593;BMP280;35499;51.482;4.264;2024-02-26T00:58:15;99658.91;;;7.55
49593;BMP280;35499;51.482;4.264;2024-02-26T01:00:41;99651.28;;;7.53
49593;BMP280;35499;51.482;4.264;2024-02-26T01:03:06;99658.09;;;7.53
49593;BMP280;35499;51.482;4.264;2024-02-26T01:05:32;99643.63;;;7.53
49593;BMP280;35499;51.482;4.264;2024-02-26T01:07:57;99651.34;;;7.52
49593;BMP280;35499;51.482;4.264;2024-02-26T01:10:23;99644.53;;;7.51
49593;BMP280;35499;51.482;4.264;2024-02-26T01:12:48;99642.94;;;7.47
49593;BMP280;35499;51.482;4.264;2024-02-26T01:15:14;99655.72;;;7.46
49593;BMP280;35499;51.482;4.264;2024-02-26T01:17:39;99652.34;;;7.44
49593;BMP280;35499;51.482;4.264;2024-02-26T01:20:05;99654.91;;;7.42
49593;BMP280;35499;51.482;4.264;2024-02-26T01:22:30;99656.69;;;7.40
49593;BMP280;35499;51.482;4.264;2024-02-26T01:24:56;99675.41;;;7.39
49593;BMP280;35499;51.482;4.264;2024-02-26T01:27:22;99668.63;;;7.38
49593;BMP280;35499;51.482;4.264;2024-02-26T01:29:52;99678.84;;;7.38
49593;BMP280;35499;51.482;4.264;2024-02-26T01:32:17;99689.13;;;7.35
49593;BMP280;35499;51.482;4.264;2024-02-26T01:34:43;99685.75;;;7.33
49593;BMP280;35499;51.482;4.264;2024-02-26T01:37:08;99682.41;;;7.32
49593;BMP280;35499;51.482;4.264;2024-02-26T01:39:33;99685.84;;;7.29
49593;BMP280;35499;51.482;4.264;2024-02-26T01:41:59;99684.22;;;7.27
49593;BMP280;35499;51.482;4.264;2024-02-26T01:44:26;99688.47;;;7.25
49593;BMP280;35499;51.482;4.264;2024-02-26T01:46:51;99688.50;;;7.23
49593;BMP280;35499;51.482;4.264;2024-02-26T01:49:18;99691.09;;;7.22
49593;BMP280;35499;51.482;4.264;2024-02-26T01:51:44;99683.47;;;7.20
49593;BMP280;35499;51.482;4.264;2024-02-26T01:54:09;99683.50;;;7.17
49593;BMP280;35499;51.482;4.264;2024-02-26T01:56:36;99683.59;;;7.14
49593;BMP280;35499;51.482;4.264;2024-02-26T01:59:03;99687.91;;;7.11
49593;BMP280;35499;51.482;4.264;2024-02-26T02:01:31;99696.44;;;7.09
49593;BMP280;35499;51.482;4.264;2024-02-26T02:03:58;99698.22;;;7.07
49593;BMP280;35499;51.482;4.264;2024-02-26T02:06:24;99715.25;;;7.03
49593;BMP280;35499;51.482;4.264;2024-02-26T02:08:49;99704.28;;;7.00
49593;BMP280;35499;51.482;4.264;2024-02-26T02:11:15;99708.59;;;6.97
49593;BMP280;35499;51.482;4.264;2024-02-26T02:13:40;99711.19;;;6.94
49593;BMP280;35499;51.482;4.264;2024-02-26T02:16:06;99712.06;;;6.93
49593;BMP280;35499;51.482;4.264;2024-02-26T02:18:33;99712.13;;;6.90
49593;BMP280;35499;51.482;4.264;2024-02-26T02:21:00;99714.75;;;6.87
49593;BMP280;35499;51.482;4.264;2024-02-26T02:23:25;99720.69;;;6.86
49593;BMP280;35499;51.482;4.264;2024-02-26T02:25:51;99717.31;;;6.85
49593;BMP280;35499;51.482;4.264;2024-02-26T02:28:17;99718.19;;;6.83
49593;BMP280;35499;51.482;4.264;2024-02-26T02:30:42;99713.97;;;6.82
49593;BMP280;35499;51.482;4.264;2024-02-26T02:33:08;99725.91;;;6.80
49593;BMP280;35499;51.482;4.264;2024-02-26T02:35:33;99724.22;;;6.79
49593;BMP280;35499;51.482;4.264;2024-02-26T02:37:58;99726.78;;;6.78
49593;BMP280;35499;51.482;4.264;2024-02-26T02:40:24;99721.72;;;6.76
49593;BMP280;35499;51.482;4.264;2024-02-26T02:42:49;99729.38;;;6.75
49593;BMP280;35499;51.482;4.264;2024-02-26T02:45:15;99731.16;;;6.71
49593;BMP280;35499;51.482;4.264;2024-02-26T02:47:40;99726.91;;;6.70
49593;BMP280;35499;51.482;4.264;2024-02-26T02:50:06;99723.59;;;6.67
49593;BMP280;35499;51.482;4.264;2024-02-26T02:52:31;99727.00;;;6.64
49593;BMP280;35499;51.482;4.264;2024-02-26T02:54:56;99727.88;;;6.63
49593;BMP280;35499;51.482;4.264;2024-02-26T02:57:22;99739.81;;;6.61
49593;BMP280;35499;51.482;4.264;2024-02-26T02:59:47;99728.78;;;6.61
49593;BMP280;35499;51.482;4.264;2024-02-26T03:02:13;99727.09;;;6.60
49593;BMP280;35499;51.482;4.264;2024-02-26T03:04:38;99740.69;;;6.61
49593;BMP280;35499;51.482;4.264;2024-02-26T03:07:03;99733.91;;;6.60
49593;BMP280;35499;51.482;4.264;2024-02-26T03:09:29;99730.50;;;6.58
49593;BMP280;35499;51.482;4.264;2024-02-26T03:11:54;99743.31;;;6.56
49593;BMP280;35499;51.482;4.264;2024-02-26T03:14:19;99733.97;;;6.55
49593;BMP280;35499;51.482;4.264;2024-02-26T03:16:45;99733.97;;;6.55
49593;BMP280;35499;51.482;4.264;2024-02-26T03:19:10;99742.47;;;6.54
49593;BMP280;35499;51.482;4.264;2024-02-26T03:21:35;99731.50;;;6.49
49593;BMP280;35499;51.482;4.264;2024-02-26T03:24:01;99743.41;;;6.49
49593;BMP280;35499;51.482;4.264;2024-02-26T03:26:27;99731.53;;;6.48
49593;BMP280;35499;51.482;4.264;2024-02-26T03:28:52;99734.13;;;6.46
49593;BMP280;35499;51.482;4.264;2024-02-26T03:31:18;99728.19;;;6.46
49593;BMP280;35499;51.482;4.264;2024-02-26T03:33:43;99736.66;;;6.46
49593;BMP280;35499;51.482;4.264;2024-02-26T03:36:08;99738.38;;;6.46
49593;BMP280;35499;51.482;4.264;2024-02-26T03:38:34;99735.84;;;6.44
49593;BMP280;35499;51.482;4.264;2024-02-26T03:40:59;99730.75;;;6.43
49593;BMP280;35499;51.482;4.264;2024-02-26T03:43:24;99749.50;;;6.41
49593;BMP280;35499;51.482;4.264;2024-02-26T03:45:50;99745.25;;;6.41
49593;BMP280;35499;51.482;4.264;2024-02-26T03:48:15;99742.72;;;6.38
49593;BMP280;35499;51.482;4.264;2024-02-26T03:50:41;99752.13;;;6.36
49593;BMP280;35499;51.482;4.264;2024-02-26T03:53:06;99744.50;;;6.35
49593;BMP280;35499;51.482;4.264;2024-02-26T03:55:34;99743.66;;;6.33
49593;BMP280;35499;51.482;4.264;2024-02-26T03:57:59;99745.41;;;6.32
49593;BMP280;35499;51.482;4.264;2024-02-26T04:00:25;99750.50;;;6.29
49593;BMP280;35499;51.482;4.264;2024-02-26T04:02:51;99750.56;;;6.26
49593;BMP280;35499;51.482;4.264;2024-02-26T04:05:16;99751.41;;;6.27
49593;BMP280;35499;51.482;4.264;2024-02-26T04:07:42;99745.50;;;6.24
49593;BMP280;35499;51.482;4.264;2024-02-26T04:10:10;99741.28;;;6.23
49593;BMP280;35499;51.482;4.264;2024-02-26T04:12:41;99758.28;;;6.22
49593;BMP280;35499;51.482;4.264;2024-02-26T04:15:10;99750.66;;;6.19
49593;BMP280;35499;51.482;4.264;2024-02-26T04:17:36;99750.66;;;6.21
49593;BMP280;35499;51.482;4.264;2024-02-26T04:20:03;99758.31;;;6.21
49593;BMP280;35499;51.482;4.264;2024-02-26T04:22:28;99758.31;;;6.18
49593;BMP280;35499;51.482;4.264;2024-02-26T04:24:54;99769.41;;;6.17
49593;BMP280;35499;51.482;4.264;2024-02-26T04:27:19;99770.25;;;6.16
49593;BMP280;35499;51.482;4.264;2024-02-26T04:29:44;99772.84;;;6.13
49593;BMP280;35499;51.482;4.264;2024-02-26T04:32:10;99776.22;;;6.13
49593;BMP280;35499;51.482;4.264;2024-02-26T04:34:35;99779.66;;;6.11
49593;BMP280;35499;51.482;4.264;2024-02-26T04:37:01;99780.53;;;6.10
49593;BMP280;35499;51.482;4.264;2024-02-26T04:39:26;99781.38;;;6.09
49593;BMP280;35499;51.482;4.264;2024-02-26T04:41:51;99780.53;;;6.08
49593;BMP280;35499;51.482;4.264;2024-02-26T04:44:17;99783.13;;;6.07
49593;BMP280;35499;51.482;4.264;2024-02-26T04:46:42;99791.66;;;6.03
49593;BMP280;35499;51.482;4.264;2024-02-26T04:49:07;99778.09;;;6.01
49593;BMP280;35499;51.482;4.264;2024-02-26T04:51:33;99785.75;;;6.00
49593;BMP280;35499;51.482;4.264;2024-02-26T04:53:58;99792.56;;;5.98
49593;BMP280;35499;51.482;4.264;2024-02-26T04:56:24;99798.50;;;5.98
49593;BMP280;35499;51.482;4.264;2024-02-26T04:58:50;99796.00;;;5.97
49593;BMP280;35499;51.482;4.264;2024-02-26T05:01:16;99802.81;;;5.96
49593;BMP280;35499;51.482;4.264;2024-02-26T05:03:42;99793.47;;;5.95
49593;BMP280;35499;51.482;4.264;2024-02-26T05:06:08;99796.03;;;5.94
49593;BMP280;35499;51.482;4.264;2024-02-26T05:08:34;99791.78;;;5.94
49593;BMP280;35499;51.482;4.264;2024-02-26T05:11:01;99801.13;;;5.94
49593;BMP280;35499;51.482;4.264;2024-02-26T05:13:28;99799.41;;;5.94
49593;BMP280;35499;51.482;4.264;2024-02-26T05:15:53;99801.13;;;5.94
49593;BMP280;35499;51.482;4.264;2024-02-26T05:18:19;99805.38;;;5.93
49593;BMP280;35499;51.482;4.264;2024-02-26T05:20:44;99804.53;;;5.93
49593;BMP280;35499;51.482;4.264;2024-02-26T05:23:09;99807.06;;;5.93
49593;BMP280;35499;51.482;4.264;2024-02-26T05:25:35;99809.63;;;5.93
49593;BMP280;35499;51.482;4.264;2024-02-26T05:28:00;99818.94;;;5.94
49593;BMP280;35499;51.482;4.264;2024-02-26T05:30:26;99819.00;;;5.92
49593;BMP280;35499;51.482;4.264;2024-02-26T05:32:53;99827.44;;;5.93
49593;BMP280;35499;51.482;4.264;2024-02-26T05:35:18;99832.53;;;5.94
49593;BMP280;35499;51.482;4.264;2024-02-26T05:37:44;99830.84;;;5.95
49593;BMP280;35499;51.482;4.264;2024-02-26T05:40:10;99838.47;;;5.95
49593;BMP280;35499;51.482;4.264;2024-02-26T05:42:36;99847.81;;;5.94
49593;BMP280;35499;51.482;4.264;2024-02-26T05:45:01;99859.69;;;5.95
49593;BMP280;35499;51.482;4.264;2024-02-26T05:47:33;99835.91;;;5.96
49593;BMP280;35499;51.482;4.264;2024-02-26T05:49:58;99858.00;;;5.97
49593;BMP280;35499;51.482;4.264;2024-02-26T05:52:26;99842.72;;;5.97
49593;BMP280;35499;51.482;4.264;2024-02-26T05:54:51;99843.53;;;5.98
49593;BMP280;35499;51.482;4.264;2024-02-26T05:57:16;99860.50;;;5.99
49593;BMP280;35499;51.482;4.264;2024-02-26T05:59:43;99855.41;;;6.00
49593;BMP280;35499;51.482;4.264;2024-02-26T06:02:09;99868.13;;;6.00
49593;BMP280;35499;51.482;4.264;2024-02-26T06:04:34;99859.63;;;6.01
49593;BMP280;35499;51.482;4.264;2024-02-26T06:06:59;99864.72;;;6.01
49593;BMP280;35499;51.482;4.264;2024-02-26T06:09:25;99864.72;;;6.03
49593;BMP280;35499;51.482;4.264;2024-02-26T06:11:50;99868.09;;;6.03
49593;BMP280;35499;51.482;4.264;2024-02-26T06:14:16;99872.38;;;6.03
49593;BMP280;35499;51.482;4.264;2024-02-26T06:16:43;99874.91;;;6.03
49593;BMP280;35499;51.482;4.264;2024-02-26T06:19:09;99894.41;;;6.04
49593;BMP280;35499;51.482;4.264;2024-02-26T06:21:34;99888.47;;;6.03
49593;BMP280;35499;51.482;4.264;2024-02-26T06:24:00;99891.00;;;6.05
49593;BMP280;35499;51.482;4.264;2024-02-26T06:26:26;99891.84;;;6.05
49593;BMP280;35499;51.482;4.264;2024-02-26T06:28:54;99899.50;;;6.05
49593;BMP280;35499;51.482;4.264;2024-02-26T06:31:20;99899.50;;;6.05
49593;BMP280;35499;51.482;4.264;2024-02-26T06:33:47;99903.75;;;6.06
49593;BMP280;35499;51.482;4.264;2024-02-26T06:36:13;99910.53;;;6.07
49593;BMP280;35499;51.482;4.264;2024-02-26T06:38:38;99924.97;;;6.07
49593;BMP280;35499;51.482;4.264;2024-02-26T06:41:03;99921.59;;;6.05
49593;BMP280;35499;51.482;4.264;2024-02-26T06:43:29;99918.19;;;6.06
49593;BMP280;35499;51.482;4.264;2024-02-26T06:45:54;99924.13;;;6.06
49593;BMP280;35499;51.482;4.264;2024-02-26T06:48:19;99930.06;;;6.05
49593;BMP280;35499;51.482;4.264;2024-02-26T06:50:45;99929.22;;;6.06
49593;BMP280;35499;51.482;4.264;2024-02-26T06:53:10;99939.44;;;6.03
49593;BMP280;35499;51.482;4.264;2024-02-26T06:55:35;99936.03;;;6.04
49593;BMP280;35499;51.482;4.264;2024-02-26T06:58:02;99952.16;;;6.03
49593;BMP280;35499;51.482;4.264;2024-02-26T07:00:28;99940.31;;;6.02
49593;BMP280;35499;51.482;4.264;2024-02-26T07:02:53;99953.91;;;6.03
49593;BMP280;35499;51.482;4.264;2024-02-26T07:05:18;99953.91;;;6.03
49593;BMP280;35499;51.482;4.264;2024-02-26T07:07:44;99956.47;;;6.01
49593;BMP280;35499;51.482;4.264;2024-02-26T07:10:10;99964.94;;;6.02
49593;BMP280;35499;51.482;4.264;2024-02-26T07:12:38;99969.19;;;6.01
49593;BMP280;35499;51.482;4.264;2024-02-26T07:15:04;99964.94;;;6.00
49593;BMP280;35499;51.482;4.264;2024-02-26T07:17:30;99975.13;;;6.00
49593;BMP280;35499;51.482;4.264;2024-02-26T07:19:55;99977.69;;;5.99
49593;BMP280;35499;51.482;4.264;2024-02-26T07:22:21;99987.03;;;5.98
49593;BMP280;35499;51.482;4.264;2024-02-26T07:24:46;99987.03;;;5.98
49593;BMP280;35499;51.482;4.264;2024-02-26T07:27:12;99997.22;;;5.98
49593;BMP280;35499;51.482;4.264;2024-02-26T07:29:37;99996.38;;;5.99
49593;BMP280;35499;51.482;4.264;2024-02-26T07:32:03;100004.03;;;6.01
49593;BMP280;35499;51.482;4.264;2024-02-26T07:34:28;100003.16;;;6.00
49593;BMP280;35499;51.482;4.264;2024-02-26T07:36:56;100012.50;;;6.01
49593;BMP280;35499;51.482;4.264;2024-02-26T07:39:22;100000.63;;;6.00
49593;BMP280;35499;51.482;4.264;2024-02-26T07:41:47;100004.88;;;6.00
49593;BMP280;35499;51.482;4.264;2024-02-26T07:44:15;100015.91;;;6.00
49593;BMP280;35499;51.482;4.264;2024-02-26T07:46:40;100024.41;;;6.02
49593;BMP280;35499;51.482;4.264;2024-02-26T07:49:06;100010.75;;;6.05
49593;BMP280;35499;51.482;4.264;2024-02-26T07:51:31;100004.84;;;6.03
49593;BMP280;35499;51.482;4.264;2024-02-26T07:53:56;100025.22;;;6.04
49593;BMP280;35499;51.482;4.264;2024-02-26T07:56:22;100019.25;;;6.05
49593;BMP280;35499;51.482;4.264;2024-02-26T07:58:47;100031.16;;;6.05
49593;BMP280;35499;51.482;4.264;2024-02-26T08:01:13;100043.03;;;6.07
49593;BMP280;35499;51.482;4.264;2024-02-26T08:03:40;100037.94;;;6.07
49593;BMP280;35499;51.482;4.264;2024-02-26T08:06:05;100044.69;;;6.08
49593;BMP280;35499;51.482;4.264;2024-02-26T08:08:30;100042.19;;;6.07
49593;BMP280;35499;51.482;4.264;2024-02-26T08:10:56;100053.22;;;6.07
49593;BMP280;35499;51.482;4.264;2024-02-26T08:13:21;100053.22;;;6.07
49593;BMP280;35499;51.482;4.264;2024-02-26T08:15:47;100054.94;;;6.07
49593;BMP280;35499;51.482;4.264;2024-02-26T08:18:12;100060.88;;;6.07
49593;BMP280;35499;51.482;4.264;2024-02-26T08:20:37;100064.28;;;6.07
49593;BMP280;35499;51.482;4.264;2024-02-26T08:23:04;100068.50;;;6.07
49593;BMP280;35499;51.482;4.264;2024-02-26T08:25:29;100101.66;;;6.06
49593;BMP280;35499;51.482;4.264;2024-02-26T08:27:54;100074.47;;;6.05
49593;BMP280;35499;51.482;4.264;2024-02-26T08:30:20;100066.81;;;6.05
49593;BMP280;35499;51.482;4.264;2024-02-26T08:32:47;100074.47;;;6.05
49593;BMP280;35499;51.482;4.264;2024-02-26T08:35:12;100083.81;;;6.04
49593;BMP280;35499;51.482;4.264;2024-02-26T08:37:38;100095.69;;;6.05
49593;BMP280;35499;51.482;4.264;2024-02-26T08:40:04;100098.25;;;6.05
49593;BMP280;35499;51.482;4.264;2024-02-26T08:42:30;100108.44;;;6.05
49593;BMP280;35499;51.482;4.264;2024-02-26T08:44:55;100103.34;;;6.07
49593;BMP280;35499;51.482;4.264;2024-02-26T08:47:20;100119.47;;;6.07
49593;BMP280;35499;51.482;4.264;2024-02-26T08:49:46;100106.75;;;6.07
49593;BMP280;35499;51.482;4.264;2024-02-26T08:52:11;100113.53;;;6.07
49593;BMP280;35499;51.482;4.264;2024-02-26T08:54:37;100112.69;;;6.07
49593;BMP280;35499;51.482;4.264;2024-02-26T08:57:03;100129.69;;;6.07
49593;BMP280;35499;51.482;4.264;2024-02-26T08:59:28;100135.63;;;6.06
49593;BMP280;35499;51.482;4.264;2024-02-26T09:01:54;100139.03;;;6.07
49593;BMP280;35499;51.482;4.264;2024-02-26T09:04:19;100139.03;;;6.07
49593;BMP280;35499;51.482;4.264;2024-02-26T09:06:45;100144.13;;;6.07
49593;BMP280;35499;51.482;4.264;2024-02-26T09:09:10;100144.97;;;6.07
49593;BMP280;35499;51.482;4.264;2024-02-26T09:11:36;100161.09;;;6.07
49593;BMP280;35499;51.482;4.264;2024-02-26T09:14:01;100151.72;;;6.08
49593;BMP280;35499;51.482;4.264;2024-02-26T09:16:29;100158.53;;;6.09
49593;BMP280;35499;51.482;4.264;2024-02-26T09:18:54;100158.53;;;6.10
49593;BMP280;35499;51.482;4.264;2024-02-26T09:21:19;100162.75;;;6.11
49593;BMP280;35499;51.482;4.264;2024-02-26T09:23:51;100167.88;;;6.11
49593;BMP280;35499;51.482;4.264;2024-02-26T09:26:17;100172.91;;;6.13
49593;BMP280;35499;51.482;4.264;2024-02-26T09:28:43;100167.00;;;6.12
49593;BMP280;35499;51.482;4.264;2024-02-26T09:31:08;100175.47;;;6.13
49593;BMP280;35499;51.482;4.264;2024-02-26T09:33:34;100176.31;;;6.13
49593;BMP280;35499;51.482;4.264;2024-02-26T09:35:59;100182.28;;;6.14
49593;BMP280;35499;51.482;4.264;2024-02-26T09:38:28;100182.28;;;6.14
49593;BMP280;35499;51.482;4.264;2024-02-26T09:40:58;100188.22;;;6.16
49593;BMP280;35499;51.482;4.264;2024-02-26T09:43:25;100197.56;;;6.17
49593;BMP280;35499;51.482;4.264;2024-02-26T09:45:54;100199.22;;;6.18
49593;BMP280;35499;51.482;4.264;2024-02-26T09:48:20;100215.38;;;6.18
49593;BMP280;35499;51.482;4.264;2024-02-26T09:50:46;100216.22;;;6.19
49593;BMP280;35499;51.482;4.264;2024-02-26T09:53:12;100217.06;;;6.19
49593;BMP280;35499;51.482;4.264;2024-02-26T09:55:40;100215.31;;;6.24
49593;BMP280;35499;51.482;4.264;2024-02-26T09:58:05;100231.47;;;6.25
49593;BMP280;35499;51.482;4.264;2024-02-26T10:04:33;100234.84;;;6.29
49593;BMP280;35499;51.482;4.264;2024-02-26T10:06:59;100233.13;;;6.28
49593;BMP280;35499;51.482;4.264;2024-02-26T10:09:26;100239.09;;;6.29
49593;BMP280;35499;51.482;4.264;2024-02-26T10:11:51;100249.31;;;6.27
49593;BMP280;35499;51.482;4.264;2024-02-26T10:14:17;100255.25;;;6.26
49593;BMP280;35499;51.482;4.264;2024-02-26T10:16:42;100250.97;;;6.28
49593;BMP280;35499;51.482;4.264;2024-02-26T10:19:08;100267.97;;;6.28
49593;BMP280;35499;51.482;4.264;2024-02-26T10:21:36;100267.16;;;6.25
49593;BMP280;35499;51.482;4.264;2024-02-26T10:24:01;100264.63;;;6.25
49593;BMP280;35499;51.482;4.264;2024-02-26T10:26:26;100265.47;;;6.26
49593;BMP280;35499;51.482;4.264;2024-02-26T10:28:52;100273.06;;;6.28
49593;BMP280;35499;51.482;4.264;2024-02-26T10:31:23;100274.78;;;6.29
49593;BMP280;35499;51.482;4.264;2024-02-26T10:33:48;100273.94;;;6.28
49593;BMP280;35499;51.482;4.264;2024-02-26T10:39:51;100293.47;;;6.29
49593;BMP280;35499;51.482;4.264;2024-02-26T10:42:16;100299.41;;;6.28
49593;BMP280;35499;51.482;4.264;2024-02-26T10:44:45;100296.06;;;6.25
49593;BMP280;35499;51.482;4.264;2024-02-26T10:47:11;100295.22;;;6.27
49593;BMP280;35499;51.482;4.264;2024-02-26T10:49:36;100290.06;;;6.29
49593;BMP280;35499;51.482;4.264;2024-02-26T10:52:03;100312.16;;;6.30
49593;BMP280;35499;51.482;4.264;2024-02-26T10:54:29;100308.75;;;6.29
49593;BMP280;35499;51.482;4.264;2024-02-26T10:56:57;100312.16;;;6.30
49593;BMP280;35499;51.482;4.264;2024-02-26T10:59:24;100320.66;;;6.30
49593;BMP280;35499;51.482;4.264;2024-02-26T11:01:50;100322.38;;;6.31
49593;BMP280;35499;51.482;4.264;2024-02-26T11:04:16;100328.31;;;6.30
49593;BMP280;35499;51.482;4.264;2024-02-26T11:06:43;100343.59;;;6.30
49593;BMP280;35499;51.482;4.264;2024-02-26T11:09:11;100340.22;;;6.31
49593;BMP280;35499;51.482;4.264;2024-02-26T11:11:38;100347.84;;;6.34
49593;BMP280;35499;51.482;4.264;2024-02-26T11:14:05;100346.13;;;6.33
49593;BMP280;35499;51.482;4.264;2024-02-26T11:16:34;100347.00;;;6.32
49593;BMP280;35499;51.482;4.264;2024-02-26T11:19:01;100348.72;;;6.30
49593;BMP280;35499;51.482;4.264;2024-02-26T11:21:27;100369.09;;;6.30
49593;BMP280;35499;51.482;4.264;2024-02-26T11:24:05;100359.75;;;6.29
49593;BMP280;35499;51.482;4.264;2024-02-26T11:26:30;100361.44;;;6.29
49593;BMP280;35499;51.482;4.264;2024-02-26T11:28:57;100359.78;;;6.26
49593;BMP280;35499;51.482;4.264;2024-02-26T11:31:25;100362.34;;;6.25
49593;BMP280;35499;51.482;4.264;2024-02-26T11:33:53;100375.06;;;6.28
49593;BMP280;35499;51.482;4.264;2024-02-26T11:36:20;100368.25;;;6.28
49593;BMP280;35499;51.482;4.264;2024-02-26T11:38:46;100368.25;;;6.30
49593;BMP280;35499;51.482;4.264;2024-02-26T11:41:15;100375.91;;;6.31
49593;BMP280;35499;51.482;4.264;2024-02-26T11:44:01;100375.06;;;6.32
49593;BMP280;35499;51.482;4.264;2024-02-26T11:49:41;100378.44;;;6.30
49593;BMP280;35499;51.482;4.264;2024-02-26T11:51:41;100381.84;;;6.30
49593;BMP280;35499;51.482;4.264;2024-02-26T11:54:07;100391.19;;;6.31
49593;BMP280;35499;51.482;4.264;2024-02-26T11:56:34;100381.84;;;6.32
49593;BMP280;35499;51.482;4.264;2024-02-26T11:59:04;100384.38;;;6.33
49593;BMP280;35499;51.482;4.264;2024-02-26T12:01:48;100390.31;;;6.35
49593;BMP280;35499;51.482;4.264;2024-02-26T12:06:46;100387.81;;;6.32
49593;BMP280;35499;51.482;4.264;2024-02-26T12:09:12;100386.94;;;6.36
49593;BMP280;35499;51.482;4.264;2024-02-26T12:11:39;100389.44;;;6.38
49593;BMP280;35499;51.482;4.264;2024-02-26T12:14:09;100392.84;;;6.38
49593;BMP280;35499;51.482;4.264;2024-02-26T12:16:38;100407.31;;;6.39
49593;BMP280;35499;51.482;4.264;2024-02-26T12:19:06;100401.34;;;6.40
49593;BMP280;35499;51.482;4.264;2024-02-26T12:21:36;100406.44;;;6.40
49593;BMP280;35499;51.482;4.264;2024-02-26T12:24:13;100414.91;;;6.43
49593;BMP280;35499;51.482;4.264;2024-02-26T12:26:39;100423.44;;;6.44
49593;BMP280;35499;51.482;4.264;2024-02-26T12:29:05;100420.03;;;6.45
49593;BMP280;35499;51.482;4.264;2024-02-26T12:31:31;100420.88;;;6.47
49593;BMP280;35499;51.482;4.264;2024-02-26T12:33:57;100411.50;;;6.50
49593;BMP280;35499;51.482;4.264;2024-02-26T12:36:23;100423.38;;;6.54
49593;BMP280;35499;51.482;4.264;2024-02-26T12:38:50;100437.81;;;6.54
49593;BMP280;35499;51.482;4.264;2024-02-26T12:41:16;100432.75;;;6.52
49593;BMP280;35499;51.482;4.264;2024-02-26T12:43:42;100441.22;;;6.54
49593;BMP280;35499;51.482;4.264;2024-02-26T12:46:07;100433.59;;;6.56
49593;BMP280;35499;51.482;4.264;2024-02-26T12:48:33;100442.94;;;6.57
49593;BMP280;35499;51.482;4.264;2024-02-26T12:50:59;100443.78;;;6.56
49593;BMP280;35499;51.482;4.264;2024-02-26T12:53:24;100447.16;;;6.58
49593;BMP280;35499;51.482;4.264;2024-02-26T12:55:50;100459.06;;;6.59
49593;BMP280;35499;51.482;4.264;2024-02-26T12:58:16;100465.88;;;6.60
49593;BMP280;35499;51.482;4.264;2024-02-26T13:00:42;100477.75;;;6.58
49593;BMP280;35499;51.482;4.264;2024-02-26T13:03:09;100467.56;;;6.59
49593;BMP280;35499;51.482;4.264;2024-02-26T13:05:35;100476.91;;;6.59
49593;BMP280;35499;51.482;4.264;2024-02-26T13:08:00;100476.06;;;6.60
49593;BMP280;35499;51.482;4.264;2024-02-26T13:10:26;100476.06;;;6.61
49593;BMP280;35499;51.482;4.264;2024-02-26T13:12:52;100493.06;;;6.63
49593;BMP280;35499;51.482;4.264;2024-02-26T13:15:20;100495.59;;;6.66
49593;BMP280;35499;51.482;4.264;2024-02-26T13:17:46;100495.59;;;6.65
49593;BMP280;35499;51.482;4.264;2024-02-26T13:20:13;100494.75;;;6.66
49593;BMP280;35499;51.482;4.264;2024-02-26T13:22:40;100511.72;;;6.68
49593;BMP280;35499;51.482;4.264;2024-02-26T13:25:05;100504.97;;;6.67
49593;BMP280;35499;51.482;4.264;2024-02-26T13:27:33;100519.41;;;6.67
49593;BMP280;35499;51.482;4.264;2024-02-26T13:30:09;100523.66;;;6.66
49593;BMP280;35499;51.482;4.264;2024-02-26T13:32:36;100532.16;;;6.65
49593;BMP280;35499;51.482;4.264;2024-02-26T13:37:31;100537.28;;;6.67
49593;BMP280;35499;51.482;4.264;2024-02-26T13:39:57;100536.41;;;6.66
49593;BMP280;35499;51.482;4.264;2024-02-26T13:42:22;100534.69;;;6.68
49593;BMP280;35499;51.482;4.264;2024-02-26T13:44:47;100554.25;;;6.71
49593;BMP280;35499;51.482;4.264;2024-02-26T13:47:13;100564.47;;;6.69
49593;BMP280;35499;51.482;4.264;2024-02-26T13:49:38;100559.38;;;6.69
49593;BMP280;35499;51.482;4.264;2024-02-26T13:52:04;100557.66;;;6.71
49593;BMP280;35499;51.482;4.264;2024-02-26T13:54:29;100561.91;;;6.74
49593;BMP280;35499;51.482;4.264;2024-02-26T13:56:55;100555.91;;;6.79
49593;BMP280;35499;51.482;4.264;2024-02-26T13:59:20;100570.38;;;6.81
49593;BMP280;35499;51.482;4.264;2024-02-26T14:01:45;100575.47;;;6.78
49593;BMP280;35499;51.482;4.264;2024-02-26T14:04:11;100582.28;;;6.78
49593;BMP280;35499;51.482;4.264;2024-02-26T14:06:36;100592.50;;;6.79
49593;BMP280;35499;51.482;4.264;2024-02-26T14:09:02;100590.78;;;6.80
49593;BMP280;35499;51.482;4.264;2024-02-26T14:11:29;100591.66;;;6.82
49593;BMP280;35499;51.482;4.264;2024-02-26T14:13:54;100591.66;;;6.82
49593;BMP280;35499;51.482;4.264;2024-02-26T14:16:19;100601.00;;;6.81
49593;BMP280;35499;51.482;4.264;2024-02-26T14:18:45;100596.72;;;6.83
49593;BMP280;35499;51.482;4.264;2024-02-26T14:21:12;100600.13;;;6.84
49593;BMP280;35499;51.482;4.264;2024-02-26T14:23:37;100608.63;;;6.83
49593;BMP280;35499;51.482;4.264;2024-02-26T14:26:03;100607.78;;;6.82